createdAt,value
2023-01-30T00:01:51.539Z,98611.97
2023-01-30T00:04:21.098Z,98611.97
2023-01-30T00:06:49.168Z,98617.31
2023-01-30T00:09:17.420Z,98613.66
2023-01-30T00:11:45.507Z,98601.63
2023-01-30T00:14:13.599Z,98565.75
2023-01-30T00:16:42.888Z,98597.59
2023-01-30T00:19:11.250Z,98597.59
2023-01-30T00:21:40.796Z,98588.91
2023-01-30T00:24:09.554Z,98591.41
2023-01-30T00:26:37.913Z,98583.19
2023-01-30T00:29:06.050Z,98593.88
2023-01-30T00:31:34.137Z,98602.94
2023-01-30T00:34:02.248Z,98602.94
2023-01-30T00:36:30.414Z,98565.66
2023-01-30T00:39:00.174Z,98592.25
2023-01-30T00:41:48.400Z,98584.22
2023-01-30T00:44:34.151Z,98563.25
2023-01-30T00:47:09.063Z,98590.56
2023-01-30T00:49:38.035Z,98588.91
2023-01-30T00:52:07.221Z,98540.38
2023-01-30T00:54:36.668Z,98580.88
2023-01-30T00:57:04.936Z,98569.50
2023-01-30T00:59:33.064Z,98569.97
2023-01-30T01:02:01.255Z,98562.13
2023-01-30T01:04:29.332Z,98565.09
2023-01-30T01:06:57.372Z,98568.16
2023-01-30T01:09:25.372Z,98581.53
2023-01-30T01:11:54.804Z,98563.78
2023-01-30T01:14:22.900Z,98574.50
2023-01-30T01:16:51.100Z,98569.97
2023-01-30T01:19:19.223Z,98573.50
2023-01-30T01:21:47.330Z,98558.44
2023-01-30T01:24:16.459Z,98544.06
2023-01-30T01:26:45.577Z,98509.56
2023-01-30T01:29:16.424Z,98555.56
2023-01-30T01:31:45.115Z,98550.59
2023-01-30T01:34:13.450Z,98560.13
2023-01-30T01:36:53.343Z,98561.75
2023-01-30T01:39:22.476Z,98548.47
2023-01-30T01:41:49.656Z,98549.78
2023-01-30T01:44:19.192Z,98554.75
2023-01-30T01:46:51.673Z,98544.88
2023-01-30T01:49:25.226Z,98560.94
2023-01-30T01:51:57.738Z,98472.72
2023-01-30T01:54:34.350Z,98545.06
2023-01-30T01:57:05.976Z,98554.94
2023-01-30T01:59:39.176Z,98545.06
2023-01-30T02:02:10.920Z,98541.56
2023-01-30T02:05:01.319Z,98547.72
2023-01-30T02:07:34.993Z,98502.53
2023-01-30T02:10:03.694Z,98537.03
2023-01-30T02:12:32.413Z,98526.31
2023-01-30T02:15:02.933Z,98519.31
2023-01-30T02:17:31.169Z,98522.81
2023-01-30T02:20:04.916Z,98523.63
2023-01-30T02:23:03.922Z,98505.75
2023-01-30T02:26:02.062Z,98509.25
2023-01-30T02:29:08.760Z,98520.97
2023-01-30T02:31:44.902Z,98497.91
2023-01-30T02:34:30.045Z,98505.94
2023-01-30T02:37:07.895Z,98501.59
2023-01-30T02:39:46.160Z,98496.25
2023-01-30T02:42:26.557Z,98490.91
2023-01-30T02:45:02.739Z,98485.53
2023-01-30T02:47:39.125Z,98483.84
2023-01-30T02:50:14.537Z,98490.91
2023-01-30T02:52:43.723Z,98494.56
2023-01-30T02:55:20.237Z,98485.53
2023-01-30T02:57:48.690Z,98480.19
2023-01-30T03:00:22.566Z,98483.84
2023-01-30T03:03:16.024Z,98474.84
2023-01-30T03:06:13.620Z,98485.53
2023-01-30T03:08:54.492Z,98476.66
2023-01-30T03:11:27.618Z,98483.84
2023-01-30T03:13:59.742Z,98490.91
2023-01-30T03:16:34.400Z,98501.59
2023-01-30T03:19:04.432Z,98491.28
2023-01-30T03:21:32.489Z,98500.09
2023-01-30T03:24:00.693Z,98498.28
2023-01-30T03:26:34.329Z,98486.34
2023-01-30T03:29:03.490Z,98487.19
2023-01-30T03:31:31.681Z,98485.34
2023-01-30T03:33:59.940Z,98479.81
2023-01-30T03:36:29.468Z,98470.09
2023-01-30T03:38:57.529Z,98465.78
2023-01-30T03:41:25.805Z,98455.06
2023-01-30T03:43:53.852Z,98467.41
2023-01-30T03:46:21.866Z,98451.34
2023-01-30T03:48:49.900Z,98445.13
2023-01-30T03:51:17.957Z,98457.56
2023-01-30T03:53:47.354Z,98456.72
2023-01-30T03:56:15.478Z,98447.69
2023-01-30T03:58:43.468Z,98462.06
2023-01-30T04:01:11.705Z,98456.72
2023-01-30T04:03:40.110Z,98417.84
2023-01-30T04:06:08.611Z,98456.72
2023-01-30T04:08:36.746Z,98451.34
2023-01-30T04:11:06.532Z,98383.78
2023-01-30T04:13:34.574Z,98450.56
2023-01-30T04:16:20.139Z,98448.69
2023-01-30T04:18:48.239Z,98432.63
2023-01-30T04:21:17.209Z,98429.94
2023-01-30T04:23:45.656Z,98419.25
2023-01-30T04:26:15.746Z,98419.25
2023-01-30T04:28:44.743Z,98410.59
2023-01-30T04:31:13.256Z,98401.53
2023-01-30T04:33:41.666Z,98390.81
2023-01-30T04:36:11.478Z,98395.78
2023-01-30T04:38:39.929Z,98343.91
2023-01-30T04:41:08.093Z,98364.81
2023-01-30T04:43:37.625Z,98376.41
2023-01-30T04:46:06.068Z,98383.44
2023-01-30T04:48:34.222Z,98390.81
2023-01-30T04:51:02.371Z,98397.03
2023-01-30T04:53:30.443Z,98387.13
2023-01-30T04:55:58.534Z,98408.53
2023-01-30T04:58:26.670Z,98390.63
2023-01-30T05:00:56.192Z,98354.63
2023-01-30T05:03:24.355Z,98371.06
2023-01-30T05:05:52.411Z,98371.91
2023-01-30T05:08:20.491Z,98371.06
2023-01-30T05:10:48.533Z,98361.19
2023-01-30T05:13:16.622Z,98357.44
2023-01-30T05:15:46.557Z,98362.03
2023-01-30T05:18:16.122Z,98364.81
2023-01-30T05:20:44.436Z,98366.94
2023-01-30T05:23:12.523Z,98376.41
2023-01-30T05:25:40.873Z,98363.88
2023-01-30T05:28:10.073Z,98363.03
2023-01-30T05:30:38.573Z,98358.69
2023-01-30T05:33:06.673Z,98337.69
2023-01-30T05:35:36.163Z,98342.66
2023-01-30T05:38:04.246Z,98331.94
2023-01-30T05:40:32.445Z,98328.63
2023-01-30T05:43:00.688Z,98337.28
2023-01-30T05:45:28.856Z,98277.63
2023-01-30T05:48:01.284Z,98334.75
2023-01-30T05:50:30.005Z,98333.97
2023-01-30T05:52:59.549Z,98342.66
2023-01-30T05:55:27.629Z,98348.00
2023-01-30T05:57:55.664Z,98348.00
2023-01-30T06:00:24.019Z,98365.09
2023-01-30T06:02:52.116Z,98358.69
2023-01-30T06:05:20.436Z,98358.69
2023-01-30T06:07:48.620Z,98351.72
2023-01-30T06:10:18.955Z,98355.38
2023-01-30T06:12:47.077Z,98365.91
2023-01-30T06:15:15.571Z,98342.75
2023-01-30T06:17:44.159Z,98364.06
2023-01-30T06:20:13.365Z,98334.50
2023-01-30T06:22:41.460Z,98333.00
2023-01-30T06:25:10.283Z,98371.06
2023-01-30T06:27:39.802Z,98365.69
2023-01-30T06:30:09.303Z,98358.69
2023-01-30T06:32:37.404Z,98362.41
2023-01-30T06:35:06.565Z,98355.19
2023-01-30T06:37:34.638Z,98343.03
2023-01-30T06:40:02.840Z,98357.06
2023-01-30T06:42:30.878Z,98338.72
2023-01-30T06:45:00.355Z,98332.31
2023-01-30T06:47:28.445Z,98341.00
2023-01-30T06:49:56.499Z,98331.69
2023-01-30T06:52:24.526Z,98346.34
2023-01-30T06:54:52.708Z,98342.66
2023-01-30T06:57:20.708Z,98342.66
2023-01-30T06:59:48.725Z,98331.94
2023-01-30T07:02:18.637Z,98326.59
2023-01-30T07:04:46.653Z,98337.28
2023-01-30T07:07:14.762Z,98337.28
2023-01-30T07:09:42.782Z,98331.94
2023-01-30T07:12:10.852Z,98333.16
2023-01-30T07:14:38.837Z,98326.13
2023-01-30T07:17:06.886Z,98330.28
2023-01-30T07:19:36.349Z,98337.28
2023-01-30T07:22:04.359Z,98344.28
2023-01-30T07:24:32.580Z,98327.75
2023-01-30T07:27:00.595Z,98326.97
2023-01-30T07:29:28.664Z,98316.66
2023-01-30T07:31:56.933Z,98335.66
2023-01-30T07:34:25.006Z,98339.13
2023-01-30T07:36:54.447Z,98344.69
2023-01-30T07:39:22.534Z,98335.66
2023-01-30T07:41:50.552Z,98334.81
2023-01-30T07:44:18.998Z,98340.16
2023-01-30T07:46:47.057Z,98355.38
2023-01-30T07:49:15.259Z,98345.50
2023-01-30T07:51:43.316Z,98340.16
2023-01-30T07:54:12.967Z,98349.03
2023-01-30T07:56:41.527Z,98335.66
2023-01-30T07:59:11.859Z,98335.66
2023-01-30T08:01:40.685Z,98346.34
2023-01-30T08:04:08.690Z,98341.81
2023-01-30T08:06:39.393Z,98353.34
2023-01-30T08:09:08.475Z,98357.88
2023-01-30T08:11:38.123Z,98340.16
2023-01-30T08:14:06.163Z,98339.31
2023-01-30T08:16:34.273Z,98345.50
2023-01-30T08:19:02.331Z,98339.31
2023-01-30T08:21:30.393Z,98330.69
2023-01-30T08:24:00.284Z,98332.31
2023-01-30T08:26:29.337Z,98342.84
2023-01-30T08:28:58.937Z,98342.84
2023-01-30T08:31:27.054Z,98340.53
2023-01-30T08:33:55.133Z,98342.84
2023-01-30T08:36:23.123Z,98335.66
2023-01-30T08:38:51.418Z,98290.47
2023-01-30T08:41:19.455Z,98341.00
2023-01-30T08:43:47.569Z,98271.44
2023-01-30T08:46:17.774Z,98318.19
2023-01-30T08:48:49.981Z,98343.69
2023-01-30T08:51:19.186Z,98320.59
2023-01-30T08:53:47.351Z,98350.03
2023-01-30T08:56:15.371Z,98357.06
2023-01-30T08:58:45.811Z,98360.72
2023-01-30T09:01:14.307Z,98368.75
2023-01-30T09:03:43.959Z,98367.13
2023-01-30T09:06:12.088Z,98366.09
2023-01-30T09:08:40.108Z,98360.72
2023-01-30T09:11:09.515Z,98371.44
2023-01-30T09:13:38.853Z,98374.13
2023-01-30T09:16:08.315Z,98338.75
2023-01-30T09:18:39.792Z,98366.09
2023-01-30T09:21:10.379Z,98384.81
2023-01-30T09:23:38.959Z,98365.28
2023-01-30T09:26:07.616Z,98352.09
2023-01-30T09:28:36.352Z,98305.31
2023-01-30T09:31:04.849Z,98360.72
2023-01-30T09:33:33.089Z,98338.19
2023-01-30T09:36:01.269Z,98363.41
2023-01-30T09:38:30.777Z,98355.38
2023-01-30T09:41:14.940Z,98351.72
2023-01-30T09:44:07.288Z,98355.38
2023-01-30T09:46:46.947Z,98362.78
2023-01-30T09:49:29.008Z,98373.50
2023-01-30T09:52:09.663Z,98394.91
2023-01-30T09:54:42.357Z,98380.88
2023-01-30T09:57:21.326Z,98389.56
2023-01-30T09:59:59.483Z,98379.66
2023-01-30T10:02:38.489Z,98384.22
2023-01-30T10:05:07.409Z,98376.19
2023-01-30T10:08:01.367Z,98371.81
2023-01-30T10:10:48.308Z,98379.84
2023-01-30T10:13:32.761Z,98388.72
2023-01-30T10:16:09.645Z,98329.16
2023-01-30T10:18:51.940Z,98384.22
2023-01-30T10:21:31.490Z,98354.28
2023-01-30T10:24:14.232Z,98394.91
2023-01-30T10:26:44.706Z,98406.00
2023-01-30T10:29:17.625Z,98423.50
2023-01-30T10:31:51.553Z,98409.28
2023-01-30T10:34:23.820Z,98412.81
2023-01-30T10:36:55.768Z,98409.09
2023-01-30T10:39:32.598Z,98406.44
2023-01-30T10:42:11.908Z,98408.28
2023-01-30T10:44:41.353Z,98411.78
2023-01-30T10:47:46.797Z,98403.56
2023-01-30T10:50:18.696Z,98421.69
2023-01-30T10:52:55.974Z,98422.50
2023-01-30T10:55:37.576Z,98437.75
2023-01-30T10:58:18.526Z,98441.03
2023-01-30T11:00:53.477Z,98451.13
2023-01-30T11:03:34.224Z,98461.19
2023-01-30T11:06:04.917Z,98480.56
2023-01-30T11:08:35.049Z,98475.22
2023-01-30T11:11:24.448Z,98469.00
2023-01-30T11:14:02.744Z,98473.53
2023-01-30T11:16:32.673Z,98435.41
2023-01-30T11:19:22.386Z,98470.84
2023-01-30T11:21:52.677Z,98471.88
2023-01-30T11:24:23.910Z,98460.34
2023-01-30T11:26:53.161Z,98462.81
2023-01-30T11:29:35.187Z,98467.19
2023-01-30T11:32:05.295Z,98475.22
2023-01-30T11:34:33.391Z,98459.16
2023-01-30T11:37:15.386Z,98436.75
2023-01-30T11:39:49.828Z,98458.50
2023-01-30T11:42:21.237Z,98475.22
2023-01-30T11:45:10.840Z,98478.88
2023-01-30T11:47:57.864Z,98465.63
2023-01-30T11:50:36.401Z,98482.22
2023-01-30T11:53:22.562Z,98483.84
2023-01-30T11:56:02.913Z,98492.06
2023-01-30T11:58:34.664Z,98495.59
2023-01-30T12:01:05.409Z,98434.97
2023-01-30T12:03:34.608Z,98501.97
2023-01-30T12:06:03.799Z,98500.09
2023-01-30T12:08:42.725Z,98435.63
2023-01-30T12:11:27.346Z,98517.19
2023-01-30T12:13:58.603Z,98527.06
2023-01-30T12:16:39.893Z,98485.97
2023-01-30T12:19:21.664Z,98533.25
2023-01-30T12:21:57.344Z,98532.41
2023-01-30T12:24:32.387Z,98532.41
2023-01-30T12:27:04.421Z,98528.75
2023-01-30T12:29:36.922Z,98485.97
2023-01-30T12:32:12.666Z,98533.25
2023-01-30T12:34:41.069Z,98534.47
2023-01-30T12:37:26.489Z,98535.75
2023-01-30T12:40:05.236Z,98532.22
2023-01-30T12:43:11.588Z,98532.03
2023-01-30T12:45:49.234Z,98529.13
2023-01-30T12:48:44.150Z,98550.16
2023-01-30T12:51:30.480Z,98498.31
2023-01-30T12:54:08.771Z,98540.44
2023-01-30T12:56:53.758Z,98553.81
2023-01-30T12:59:29.665Z,98514.00
2023-01-30T13:02:18.507Z,98548.47
2023-01-30T13:05:04.757Z,98560.84
2023-01-30T13:07:44.189Z,98569.88
2023-01-30T13:10:20.327Z,98553.00
2023-01-30T13:12:56.409Z,98575.63
2023-01-30T13:15:31.421Z,98587.63
2023-01-30T13:18:14.753Z,98596.66
2023-01-30T13:20:54.138Z,98610.03
2023-01-30T13:23:28.555Z,98602.00
2023-01-30T13:26:05.916Z,98607.28
2023-01-30T13:28:38.054Z,98613.56
2023-01-30T13:31:09.549Z,98610.03
2023-01-30T13:33:43.015Z,98618.06
2023-01-30T13:36:17.970Z,98631.81
2023-01-30T13:38:57.608Z,98649.00
2023-01-30T13:41:29.314Z,98648.34
2023-01-30T13:43:59.165Z,98665.06
2023-01-30T13:46:30.640Z,98624.72
2023-01-30T13:49:12.606Z,98689.97
2023-01-30T13:51:48.847Z,98715.75
2023-01-30T13:54:44.543Z,98674.53
2023-01-30T13:57:22.384Z,98718.78
2023-01-30T14:00:18.041Z,98722.91
2023-01-30T14:03:24.141Z,98737.53
2023-01-30T14:06:37.669Z,98739.53
2023-01-30T14:09:22.121Z,98744.91
2023-01-30T14:11:57.752Z,98750.25
2023-01-30T14:14:31.996Z,98751.91
2023-01-30T14:17:12.546Z,98770.63
2023-01-30T14:20:17.184Z,98778.66
2023-01-30T14:22:53.435Z,98777.84
2023-01-30T14:25:46.547Z,98774.34
2023-01-30T14:28:45.375Z,98784.03
2023-01-30T14:31:14.867Z,98795.09
2023-01-30T14:33:51.723Z,98799.28
2023-01-30T14:36:37.324Z,98809.50
2023-01-30T14:39:40.175Z,98816.16
2023-01-30T14:42:23.008Z,98826.84
2023-01-30T14:45:06.047Z,98834.88
2023-01-30T14:47:45.408Z,98842.09
2023-01-30T14:50:22.141Z,98846.63
2023-01-30T14:52:51.506Z,98850.31
2023-01-30T14:55:23.375Z,98869.69
2023-01-30T14:57:59.056Z,98869.69
2023-01-30T15:00:32.354Z,98885.75
2023-01-30T15:03:03.215Z,98898.13
2023-01-30T15:05:35.449Z,98909.84
2023-01-30T15:08:11.260Z,98902.81
2023-01-30T15:11:03.799Z,98896.81
2023-01-30T15:13:45.443Z,98858.38
2023-01-30T15:16:48.788Z,98912.50
2023-01-30T15:19:31.922Z,98926.91
2023-01-30T15:22:13.417Z,98924.25
2023-01-30T15:25:27.053Z,98932.28
2023-01-30T15:28:15.935Z,98851.31
2023-01-30T15:30:58.537Z,98919.28
2023-01-30T15:33:31.707Z,98942.97
2023-01-30T15:36:00.218Z,98947.66
2023-01-30T15:38:31.099Z,98953.69
2023-01-30T15:41:02.203Z,98962.56
2023-01-30T15:43:50.985Z,98975.09
2023-01-30T15:46:26.447Z,98973.44
2023-01-30T15:49:12.228Z,98992.81
2023-01-30T15:51:40.435Z,98992.81
2023-01-30T15:54:12.413Z,99002.72
2023-01-30T15:56:41.947Z,98971.84
2023-01-30T15:59:24.446Z,99000.75
2023-01-30T16:02:02.514Z,99013.41
2023-01-30T16:04:30.729Z,99015.91
2023-01-30T16:06:58.968Z,99008.69
2023-01-30T16:09:27.594Z,99014.91
2023-01-30T16:11:56.263Z,98956.94
2023-01-30T16:14:24.491Z,99038.16
2023-01-30T16:16:55.484Z,99014.69
2023-01-30T16:19:29.797Z,99043.38
2023-01-30T16:22:02.070Z,99046.19
2023-01-30T16:24:32.844Z,99060.59
2023-01-30T16:27:03.845Z,99070.28
2023-01-30T16:29:34.844Z,99071.97
2023-01-30T16:32:03.413Z,99067.44
2023-01-30T16:34:35.866Z,99067.78
2023-01-30T16:37:07.838Z,99072.78
2023-01-30T16:39:38.289Z,99099.56
2023-01-30T16:42:23.459Z,99096.41
2023-01-30T16:44:51.602Z,99093.56
2023-01-30T16:47:26.258Z,99109.63
2023-01-30T16:49:58.038Z,99104.13
2023-01-30T16:52:38.240Z,99096.63
2023-01-30T16:55:09.405Z,99127.50
2023-01-30T16:57:43.313Z,99132.03
2023-01-30T17:00:25.033Z,99146.09
2023-01-30T17:02:56.746Z,99144.75
2023-01-30T17:05:28.623Z,99154.28
2023-01-30T17:07:58.476Z,99133.56
2023-01-30T17:11:02.995Z,99156.78
2023-01-30T17:13:36.653Z,99135.72
2023-01-30T17:16:35.375Z,99130.44
2023-01-30T17:19:03.742Z,99134.44
2023-01-30T17:21:43.188Z,99188.25
2023-01-30T17:24:15.458Z,99190.91
2023-01-30T17:26:43.924Z,99204.31
2023-01-30T17:29:23.650Z,99228.41
2023-01-30T17:32:02.431Z,99232.09
2023-01-30T17:34:30.497Z,99237.78
2023-01-30T17:37:00.001Z,99230.09
2023-01-30T17:39:29.099Z,99213.09
2023-01-30T17:41:57.101Z,99256.00
2023-01-30T17:44:26.741Z,99267.56
2023-01-30T17:46:54.833Z,99278.28
2023-01-30T17:49:24.891Z,99262.88
2023-01-30T17:51:53.964Z,99272.94
2023-01-30T17:54:24.995Z,99254.19
2023-01-30T17:56:55.945Z,99268.91
2023-01-30T17:59:24.216Z,99250.53
2023-01-30T18:01:53.500Z,99297.66
2023-01-30T18:04:22.123Z,99302.38
2023-01-30T18:06:56.345Z,99316.41
2023-01-30T18:09:27.031Z,99306.41
2023-01-30T18:11:55.222Z,99296.38
2023-01-30T18:14:23.822Z,99328.13
2023-01-30T18:16:52.170Z,99337.81
2023-01-30T18:19:24.273Z,99343.34
2023-01-30T18:21:52.931Z,99326.13
2023-01-30T18:24:21.332Z,99355.91
2023-01-30T18:26:50.947Z,99365.63
2023-01-30T18:29:19.387Z,99359.41
2023-01-30T18:31:48.945Z,99359.41
2023-01-30T18:34:17.089Z,99375.00
2023-01-30T18:36:45.097Z,99382.69
2023-01-30T18:39:13.467Z,99402.25
2023-01-30T18:41:41.768Z,99406.78
2023-01-30T18:44:13.138Z,99422.84
2023-01-30T18:46:41.238Z,99438.91
2023-01-30T18:49:09.435Z,99424.53
2023-01-30T18:51:37.465Z,99440.56
2023-01-30T18:54:05.892Z,99435.22
2023-01-30T18:56:35.465Z,99450.44
2023-01-30T18:59:05.336Z,99428.50
2023-01-30T19:01:37.646Z,99461.16
2023-01-30T19:04:08.405Z,99452.31
2023-01-30T19:06:38.059Z,99476.41
2023-01-30T19:09:06.975Z,99480.38
2023-01-30T19:11:52.718Z,99501.47
2023-01-30T19:14:21.062Z,99450.22
2023-01-30T19:16:51.346Z,99512.19
2023-01-30T19:19:19.956Z,99519.25
2023-01-30T19:21:48.584Z,99490.41
2023-01-30T19:24:17.738Z,99493.56
2023-01-30T19:26:46.261Z,99532.47
2023-01-30T19:29:14.298Z,99535.31
2023-01-30T19:31:42.727Z,99540.66
2023-01-30T19:34:13.106Z,99540.66
2023-01-30T19:36:41.555Z,99549.50
2023-01-30T19:39:11.623Z,99546.00
2023-01-30T19:41:39.675Z,99556.72
2023-01-30T19:44:09.196Z,99522.16
2023-01-30T19:46:37.699Z,99573.75
2023-01-30T19:49:06.137Z,99571.09
2023-01-30T19:51:36.747Z,99581.78
2023-01-30T19:54:06.504Z,99573.75
2023-01-30T19:56:36.710Z,99580.47
2023-01-30T19:59:05.088Z,99577.44
2023-01-30T20:01:37.116Z,99584.47
2023-01-30T20:04:05.499Z,99584.13
2023-01-30T20:06:36.308Z,99602.41
2023-01-30T20:09:05.997Z,99606.06
2023-01-30T20:11:34.918Z,99611.25
2023-01-30T20:14:05.328Z,99586.56
2023-01-30T20:16:34.836Z,99631.00
2023-01-30T20:19:05.546Z,99632.66
2023-01-30T20:21:33.663Z,99628.31
2023-01-30T20:24:03.328Z,99635.00
2023-01-30T20:26:34.940Z,99649.75
2023-01-30T20:29:03.493Z,99612.84
2023-01-30T20:31:32.923Z,99646.06
2023-01-30T20:34:03.159Z,99580.97
2023-01-30T20:36:31.176Z,99632.91
2023-01-30T20:39:04.496Z,99671.16
2023-01-30T20:41:35.744Z,99667.47
2023-01-30T20:44:04.997Z,99672.81
2023-01-30T20:46:38.939Z,99684.53
2023-01-30T20:49:06.961Z,99682.72
2023-01-30T20:51:36.079Z,99687.22
2023-01-30T20:54:07.799Z,99675.28
2023-01-30T20:56:37.504Z,99687.22
2023-01-30T20:59:07.598Z,99664.03
2023-01-30T21:01:36.272Z,99703.28
2023-01-30T21:04:07.659Z,99718.34
2023-01-30T21:06:44.197Z,99714.84
2023-01-30T21:09:17.351Z,99716.84
2023-01-30T21:11:46.255Z,99724.72
2023-01-30T21:14:14.607Z,99733.75
2023-01-30T21:16:43.179Z,99749.81
2023-01-30T21:19:14.331Z,99746.13
2023-01-30T21:21:44.353Z,99751.50
2023-01-30T21:24:15.757Z,99760.53
2023-01-30T21:26:46.679Z,99754.09
2023-01-30T21:29:16.193Z,99765.88
2023-01-30T21:31:45.328Z,99769.53
2023-01-30T21:34:14.167Z,99742.34
2023-01-30T21:36:42.355Z,99764.19
2023-01-30T21:39:33.670Z,99763.13
2023-01-30T21:42:20.632Z,99682.78
2023-01-30T21:44:49.348Z,99780.25
2023-01-30T21:47:17.358Z,99780.25
2023-01-30T21:49:45.627Z,99736.88
2023-01-30T21:52:13.755Z,99785.59
2023-01-30T21:54:43.200Z,99791.81
2023-01-30T21:57:11.219Z,99803.38
2023-01-30T21:59:39.351Z,99803.38
2023-01-30T22:02:07.608Z,99803.38
2023-01-30T22:04:36.631Z,99810.69
2023-01-30T22:07:06.787Z,99818.44
2023-01-30T22:09:35.169Z,99821.09
2023-01-30T22:12:04.823Z,99812.06
2023-01-30T22:14:35.310Z,99829.81
2023-01-30T22:17:03.567Z,99829.81
2023-01-30T22:19:35.803Z,99835.19
2023-01-30T22:22:04.943Z,99828.97
2023-01-30T22:24:33.001Z,99839.47
2023-01-30T22:27:01.100Z,99851.25
2023-01-30T22:29:30.627Z,99854.91
2023-01-30T22:31:58.713Z,99850.41
2023-01-30T22:34:26.889Z,99859.44
2023-01-30T22:36:55.517Z,99865.91
2023-01-30T22:39:23.572Z,99870.97
2023-01-30T22:41:51.958Z,99871.81
2023-01-30T22:44:20.053Z,99870.97
2023-01-30T22:46:52.090Z,99881.69
2023-01-30T22:49:20.213Z,99882.53
2023-01-30T22:51:48.216Z,99879.00
2023-01-30T22:54:17.002Z,99884.34
2023-01-30T22:56:46.298Z,99874.66
2023-01-30T22:59:15.030Z,99881.69
2023-01-30T23:01:44.884Z,99887.03
2023-01-30T23:04:16.172Z,99880.00
2023-01-30T23:06:44.858Z,99881.69
2023-01-30T23:09:16.468Z,99895.06
2023-01-30T23:12:08.903Z,99802.09
2023-01-30T23:14:37.126Z,99883.69
2023-01-30T23:17:26.567Z,99870.84
2023-01-30T23:19:55.595Z,99896.06
2023-01-30T23:22:23.792Z,99900.41
2023-01-30T23:24:52.178Z,99906.78
2023-01-30T23:27:20.757Z,99818.47
2023-01-30T23:29:48.838Z,99913.81
2023-01-30T23:32:20.029Z,99919.16
2023-01-30T23:34:48.204Z,99903.09
2023-01-30T23:37:17.964Z,99913.81
2023-01-30T23:39:46.704Z,99742.09
2023-01-30T23:42:15.005Z,99909.47
2023-01-30T23:44:43.129Z,99910.94
2023-01-30T23:47:11.306Z,99919.16
2023-01-30T23:49:39.881Z,99928.22
2023-01-30T23:52:08.057Z,99892.25
2023-01-30T23:54:37.608Z,99919.16
2023-01-30T23:57:05.819Z,99930.19
2023-01-30T23:59:34.095Z,99929.06
